createdAt,value
2023-01-31T00:02:12.232Z,3.23
2023-01-31T00:05:16.542Z,4.00
2023-01-31T00:08:19.212Z,3.13
2023-01-31T00:11:24.650Z,2.90
2023-01-31T00:14:27.230Z,2.90
2023-01-31T00:17:29.795Z,3.13
2023-01-31T00:20:33.717Z,3.17
2023-01-31T00:23:37.165Z,2.83
2023-01-31T00:26:40.058Z,3.17
2023-01-31T00:29:42.695Z,3.03
2023-01-31T00:32:45.266Z,3.37
2023-01-31T00:35:49.236Z,2.40
2023-01-31T00:38:53.381Z,3.27
2023-01-31T00:41:55.958Z,3.23
2023-01-31T00:44:58.600Z,2.83
2023-01-31T00:48:01.174Z,2.80
2023-01-31T00:51:05.903Z,2.83
2023-01-31T00:54:08.508Z,2.70
2023-01-31T00:57:11.135Z,3.13
2023-01-31T01:00:14.844Z,3.20
2023-01-31T01:03:17.446Z,3.47
2023-01-31T01:06:22.103Z,2.73
2023-01-31T01:09:25.427Z,3.30
2023-01-31T01:12:28.015Z,1.80
2023-01-31T01:15:30.583Z,1.80
2023-01-31T01:18:35.376Z,1.80
2023-01-31T01:21:40.681Z,1.90
2023-01-31T01:24:43.830Z,2.30
2023-01-31T01:27:46.401Z,1.80
2023-01-31T01:30:48.999Z,1.83
2023-01-31T01:33:51.721Z,1.80
2023-01-31T01:36:55.693Z,1.97
2023-01-31T01:39:58.250Z,1.90
2023-01-31T01:43:00.827Z,1.70
2023-01-31T01:46:03.557Z,1.90
2023-01-31T01:49:18.983Z,2.20
2023-01-31T01:52:24.921Z,2.30
2023-01-31T01:55:32.880Z,2.23
2023-01-31T01:58:40.853Z,1.70
2023-01-31T02:01:45.010Z,2.33
2023-01-31T02:04:51.453Z,2.00
2023-01-31T02:07:56.034Z,2.37
2023-01-31T02:11:04.126Z,2.40
2023-01-31T02:14:09.362Z,2.30
2023-01-31T02:17:15.808Z,3.30
2023-01-31T02:20:34.325Z,3.43
2023-01-31T02:24:09.720Z,3.00
2023-01-31T02:27:45.228Z,3.60
2023-01-31T02:31:19.571Z,3.60
2023-01-31T02:34:31.743Z,3.30
2023-01-31T02:37:42.086Z,3.27
2023-01-31T02:40:52.549Z,3.43
2023-01-31T02:44:16.111Z,3.40
2023-01-31T02:47:28.417Z,3.53
2023-01-31T02:50:39.740Z,3.57
2023-01-31T02:53:46.514Z,3.47
2023-01-31T02:56:50.274Z,3.13
2023-01-31T02:59:52.975Z,3.87
2023-01-31T03:02:56.362Z,2.87
2023-01-31T03:06:27.564Z,3.93
2023-01-31T03:09:43.117Z,3.27
2023-01-31T03:12:59.175Z,3.20
2023-01-31T03:16:30.446Z,3.13
2023-01-31T03:19:39.822Z,3.00
2023-01-31T03:22:46.538Z,2.63
2023-01-31T03:25:50.612Z,3.27
2023-01-31T03:28:57.088Z,3.07
2023-01-31T03:32:06.040Z,2.73
2023-01-31T03:35:09.848Z,2.87
2023-01-31T03:38:18.743Z,2.93
2023-01-31T03:41:28.847Z,2.93
2023-01-31T03:44:40.333Z,3.00
2023-01-31T03:47:45.650Z,2.63
2023-01-31T03:50:52.384Z,2.73
2023-01-31T03:54:01.400Z,2.20
2023-01-31T03:57:08.532Z,2.77
2023-01-31T04:00:16.485Z,2.63
2023-01-31T04:03:25.067Z,2.60
2023-01-31T04:06:28.399Z,2.60
2023-01-31T04:09:32.357Z,2.70
2023-01-31T04:12:37.249Z,2.70
2023-01-31T04:15:39.952Z,2.90
2023-01-31T04:18:42.559Z,2.50
2023-01-31T04:21:45.184Z,2.10
2023-01-31T04:24:49.506Z,2.60
2023-01-31T04:27:52.115Z,2.70
2023-01-31T04:30:55.507Z,2.97
2023-01-31T04:33:58.349Z,3.57
2023-01-31T04:37:00.936Z,3.10
2023-01-31T04:40:05.851Z,3.70
2023-01-31T04:43:08.445Z,3.60
2023-01-31T04:46:11.052Z,4.03
2023-01-31T04:49:13.709Z,3.10
2023-01-31T04:52:16.338Z,4.57
2023-01-31T04:55:20.949Z,3.40
2023-01-31T04:58:24.145Z,2.53
2023-01-31T05:01:27.289Z,3.80
2023-01-31T05:04:29.888Z,3.43
2023-01-31T05:07:32.746Z,3.17
2023-01-31T05:10:37.146Z,2.87
2023-01-31T05:13:39.738Z,3.43
2023-01-31T05:16:44.010Z,4.37
2023-01-31T05:19:48.546Z,3.33
2023-01-31T05:22:51.663Z,3.10
2023-01-31T05:25:55.726Z,3.37
2023-01-31T05:29:00.439Z,3.47
2023-01-31T05:32:04.506Z,3.37
2023-01-31T05:35:08.142Z,3.30
2023-01-31T05:38:10.995Z,3.23
2023-01-31T05:41:14.925Z,3.47
2023-01-31T05:44:17.774Z,3.63
2023-01-31T05:47:20.376Z,3.30
2023-01-31T05:50:23.476Z,3.00
2023-01-31T05:53:26.144Z,3.13
2023-01-31T05:56:30.074Z,3.10
2023-01-31T05:59:33.561Z,3.60
2023-01-31T06:02:36.179Z,3.17
2023-01-31T06:05:44.733Z,3.50
2023-01-31T06:08:47.374Z,3.13
2023-01-31T06:11:51.278Z,6.97
2023-01-31T06:15:15.716Z,6.07
2023-01-31T06:18:18.287Z,9.03
2023-01-31T06:21:21.125Z,4.63
2023-01-31T06:24:23.755Z,4.80
2023-01-31T06:27:27.674Z,4.27
2023-01-31T06:30:30.876Z,4.37
2023-01-31T06:33:45.391Z,3.37
2023-01-31T06:36:49.771Z,3.13
2023-01-31T06:39:52.328Z,4.33
2023-01-31T06:42:56.515Z,3.60
2023-01-31T06:45:59.185Z,3.80
2023-01-31T06:49:02.009Z,4.07
2023-01-31T06:52:04.757Z,4.20
2023-01-31T06:55:08.062Z,3.60
2023-01-31T06:58:11.985Z,3.37
2023-01-31T07:01:16.246Z,4.03
2023-01-31T07:04:19.021Z,3.97
2023-01-31T07:07:21.620Z,3.77
2023-01-31T07:10:24.201Z,3.67
2023-01-31T07:13:28.934Z,3.47
2023-01-31T07:16:32.361Z,3.07
2023-01-31T07:19:34.973Z,3.40
2023-01-31T07:22:37.586Z,3.63
2023-01-31T07:25:40.159Z,4.53
2023-01-31T07:28:44.136Z,3.83
2023-01-31T07:31:46.784Z,4.53
2023-01-31T07:34:49.897Z,3.87
2023-01-31T07:37:53.115Z,3.70
2023-01-31T07:40:55.808Z,4.00
2023-01-31T07:44:00.611Z,3.93
2023-01-31T07:47:03.186Z,4.07
2023-01-31T07:50:06.333Z,4.13
2023-01-31T07:53:08.950Z,3.87
2023-01-31T07:56:14.261Z,4.37
2023-01-31T07:59:18.524Z,4.43
2023-01-31T08:02:38.774Z,4.70
2023-01-31T08:05:41.409Z,5.13
2023-01-31T08:08:45.069Z,4.87
2023-01-31T08:11:47.767Z,5.17
2023-01-31T08:14:51.708Z,5.30
2023-01-31T08:17:54.296Z,5.83
2023-01-31T08:20:57.789Z,5.27
2023-01-31T08:24:00.407Z,5.50
2023-01-31T08:27:03.013Z,6.00
2023-01-31T08:30:08.801Z,5.63
2023-01-31T08:33:12.586Z,5.73
2023-01-31T08:36:18.851Z,5.50
2023-01-31T08:39:21.423Z,6.13
2023-01-31T08:42:23.987Z,5.87
2023-01-31T08:45:28.257Z,5.83
2023-01-31T08:48:33.289Z,5.73
2023-01-31T08:51:35.934Z,5.40
2023-01-31T08:54:38.493Z,5.60
2023-01-31T08:57:57.660Z,6.00
2023-01-31T09:01:04.184Z,6.43
2023-01-31T09:04:06.759Z,5.50
2023-01-31T09:07:09.379Z,4.87
2023-01-31T09:10:12.523Z,5.07
2023-01-31T09:13:15.114Z,5.43
2023-01-31T09:16:20.943Z,5.07
2023-01-31T09:19:23.658Z,5.83
2023-01-31T09:22:26.283Z,5.70
2023-01-31T09:25:43.441Z,6.67
2023-01-31T09:28:49.186Z,5.93
2023-01-31T09:31:53.618Z,5.27
2023-01-31T09:34:56.224Z,6.43
2023-01-31T09:37:59.369Z,6.20
2023-01-31T09:41:04.240Z,6.43
2023-01-31T09:44:11.529Z,5.43
2023-01-31T09:47:22.284Z,6.67
2023-01-31T09:50:32.240Z,6.60
2023-01-31T09:53:39.313Z,6.60
2023-01-31T09:56:46.631Z,7.10
2023-01-31T09:59:54.657Z,7.30
2023-01-31T10:03:31.853Z,6.10
2023-01-31T10:06:40.962Z,5.93
2023-01-31T10:09:47.481Z,6.30
2023-01-31T10:12:53.272Z,6.83
2023-01-31T10:15:58.663Z,7.30
2023-01-31T10:19:07.447Z,7.30
2023-01-31T10:22:15.279Z,5.97
2023-01-31T10:25:24.961Z,6.43
2023-01-31T10:28:36.713Z,6.33
2023-01-31T10:31:44.290Z,7.17
2023-01-31T10:34:54.570Z,6.93
2023-01-31T10:38:02.786Z,7.00
2023-01-31T10:41:14.693Z,8.03
2023-01-31T10:44:23.873Z,7.87
2023-01-31T10:47:32.798Z,7.30
2023-01-31T10:50:46.372Z,7.73
2023-01-31T10:54:05.589Z,7.80
2023-01-31T10:57:08.363Z,7.10
2023-01-31T11:00:18.995Z,6.90
2023-01-31T11:03:22.072Z,7.57
2023-01-31T11:06:26.063Z,8.77
2023-01-31T11:09:31.344Z,7.73
2023-01-31T11:12:53.327Z,7.73
2023-01-31T11:15:56.598Z,7.77
2023-01-31T11:19:02.321Z,6.97
2023-01-31T11:22:08.144Z,8.53
2023-01-31T11:25:21.785Z,7.20
2023-01-31T11:28:29.163Z,6.63
2023-01-31T11:31:35.602Z,7.00
2023-01-31T11:34:38.274Z,6.93
2023-01-31T11:37:53.958Z,6.23
2023-01-31T11:40:56.734Z,6.33
2023-01-31T11:44:09.276Z,6.50
2023-01-31T11:47:14.009Z,6.40
2023-01-31T11:50:21.804Z,5.30
2023-01-31T11:53:29.692Z,6.13
2023-01-31T11:56:37.925Z,5.40
2023-01-31T11:59:40.643Z,5.80
2023-01-31T12:02:43.354Z,5.20
2023-01-31T12:05:51.253Z,5.43
2023-01-31T12:08:57.093Z,5.40
2023-01-31T12:12:02.693Z,4.90
2023-01-31T12:15:15.365Z,5.27
2023-01-31T12:18:28.556Z,5.53
2023-01-31T12:21:45.749Z,4.73
2023-01-31T12:25:03.476Z,4.20
2023-01-31T12:28:22.858Z,3.73
2023-01-31T12:31:42.081Z,3.97
2023-01-31T12:35:11.032Z,3.63
2023-01-31T12:38:28.689Z,3.10
2023-01-31T12:41:40.342Z,4.57
2023-01-31T12:44:46.625Z,3.23
2023-01-31T12:48:09.366Z,3.17
2023-01-31T12:51:27.051Z,3.13
2023-01-31T12:54:45.004Z,3.23
2023-01-31T12:57:58.115Z,3.07
2023-01-31T13:01:05.682Z,2.67
2023-01-31T13:04:27.716Z,3.03
2023-01-31T13:07:36.690Z,3.00
2023-01-31T13:10:44.665Z,2.70
2023-01-31T13:13:51.704Z,2.60
2023-01-31T13:17:00.067Z,2.53
2023-01-31T13:20:09.062Z,2.60
2023-01-31T13:23:18.125Z,2.30
2023-01-31T13:26:26.503Z,2.10
2023-01-31T13:29:35.329Z,2.00
2023-01-31T13:32:42.235Z,1.80
2023-01-31T13:35:46.176Z,1.53
2023-01-31T13:38:49.323Z,1.53
2023-01-31T13:41:52.204Z,1.90
2023-01-31T13:44:57.496Z,1.80
2023-01-31T13:48:04.743Z,1.80
2023-01-31T13:51:16.031Z,2.30
2023-01-31T13:54:23.463Z,2.00
2023-01-31T13:57:29.592Z,1.87
2023-01-31T14:00:40.902Z,1.83
2023-01-31T14:04:24.473Z,2.13
2023-01-31T14:07:27.064Z,3.17
2023-01-31T14:10:38.623Z,1.97
2023-01-31T14:13:44.032Z,1.80
2023-01-31T14:16:51.742Z,2.20
2023-01-31T14:20:07.870Z,2.00
2023-01-31T14:23:31.040Z,2.10
2023-01-31T14:26:38.229Z,2.20
2023-01-31T14:29:44.002Z,2.00
2023-01-31T14:32:50.547Z,2.27
2023-01-31T14:36:08.160Z,2.20
2023-01-31T14:39:25.756Z,2.03
2023-01-31T14:42:45.143Z,2.73
2023-01-31T14:46:07.345Z,2.30
2023-01-31T14:49:26.571Z,2.77
2023-01-31T14:52:48.809Z,2.40
2023-01-31T14:56:24.180Z,2.63
2023-01-31T14:59:34.951Z,2.57
2023-01-31T15:02:49.692Z,2.90
2023-01-31T15:05:56.696Z,3.00
2023-01-31T15:09:27.807Z,2.77
2023-01-31T15:12:55.753Z,2.50
2023-01-31T15:15:59.037Z,2.83
2023-01-31T15:19:09.044Z,2.27
2023-01-31T15:22:14.408Z,2.63
2023-01-31T15:25:25.993Z,2.40
2023-01-31T15:28:31.093Z,2.93
2023-01-31T15:31:42.023Z,2.73
2023-01-31T15:34:55.362Z,2.87
2023-01-31T15:38:04.815Z,3.40
2023-01-31T15:41:20.069Z,3.97
2023-01-31T15:44:24.215Z,3.27
2023-01-31T15:47:26.787Z,4.03
2023-01-31T15:50:31.438Z,3.87
2023-01-31T15:53:35.393Z,3.50
2023-01-31T15:56:41.481Z,3.83
2023-01-31T15:59:47.151Z,4.53
2023-01-31T16:02:50.040Z,3.90
2023-01-31T16:05:54.395Z,4.53
2023-01-31T16:09:01.763Z,4.10
2023-01-31T16:12:05.156Z,5.33
2023-01-31T16:15:09.598Z,4.63
2023-01-31T16:18:13.832Z,5.10
2023-01-31T16:21:25.616Z,3.70
2023-01-31T16:24:29.640Z,4.07
2023-01-31T16:27:36.969Z,4.40
2023-01-31T16:30:41.384Z,2.60
2023-01-31T16:33:50.396Z,1.70
2023-01-31T16:36:57.504Z,1.70
2023-01-31T16:40:05.947Z,2.33
2023-01-31T16:43:19.768Z,1.73
2023-01-31T16:46:38.643Z,2.20
2023-01-31T16:49:41.383Z,2.60
2023-01-31T16:52:45.035Z,2.60
2023-01-31T16:56:23.098Z,2.60
2023-01-31T16:59:48.399Z,2.70
2023-01-31T17:02:53.321Z,2.83
2023-01-31T17:05:55.984Z,2.87
2023-01-31T17:08:59.166Z,3.00
2023-01-31T17:12:03.565Z,3.33
2023-01-31T17:15:14.876Z,4.37
2023-01-31T17:18:17.983Z,3.87
2023-01-31T17:21:22.341Z,3.77
2023-01-31T17:24:24.918Z,4.23
2023-01-31T17:27:28.828Z,3.97
2023-01-31T17:30:31.800Z,4.67
2023-01-31T17:33:34.449Z,4.60
2023-01-31T17:36:37.020Z,4.70
2023-01-31T17:39:39.737Z,5.00
2023-01-31T17:42:43.738Z,5.13
2023-01-31T17:45:46.332Z,4.30
2023-01-31T17:48:48.906Z,4.90
2023-01-31T17:51:51.542Z,4.93
2023-01-31T17:54:54.146Z,4.67
2023-01-31T17:57:58.077Z,5.17
2023-01-31T18:01:00.690Z,4.30
2023-01-31T18:04:04.515Z,4.37
2023-01-31T18:07:07.136Z,5.10
2023-01-31T18:10:11.117Z,4.70
2023-01-31T18:13:15.043Z,4.70
2023-01-31T18:16:20.733Z,5.37
2023-01-31T18:19:23.669Z,5.73
2023-01-31T18:22:26.689Z,4.80
2023-01-31T18:25:30.644Z,4.63
2023-01-31T18:28:35.047Z,5.77
2023-01-31T18:31:37.658Z,5.70
2023-01-31T18:34:40.317Z,4.40
2023-01-31T18:37:42.944Z,5.60
2023-01-31T18:40:45.526Z,6.07
2023-01-31T18:43:50.154Z,5.97
2023-01-31T18:46:52.768Z,7.00
2023-01-31T18:49:55.359Z,6.70
2023-01-31T18:52:58.031Z,5.20
2023-01-31T18:56:03.495Z,5.40
2023-01-31T18:59:08.620Z,4.77
2023-01-31T19:02:12.071Z,5.77
2023-01-31T19:05:14.810Z,7.00
2023-01-31T19:08:17.499Z,6.00
2023-01-31T19:11:23.335Z,5.20
2023-01-31T19:14:27.370Z,5.87
2023-01-31T19:17:30.040Z,5.80
2023-01-31T19:20:32.740Z,5.53
2023-01-31T19:23:37.667Z,5.67
2023-01-31T19:26:41.046Z,5.50
2023-01-31T19:29:45.100Z,4.67
2023-01-31T19:32:47.775Z,4.83
2023-01-31T19:35:50.408Z,4.73
2023-01-31T19:38:53.322Z,5.47
2023-01-31T19:41:55.995Z,4.93
2023-01-31T19:45:00.105Z,4.10
2023-01-31T19:48:02.869Z,4.90
2023-01-31T19:51:10.001Z,5.03
2023-01-31T19:54:15.118Z,5.63
2023-01-31T19:57:17.801Z,5.40
2023-01-31T20:00:22.119Z,5.83
2023-01-31T20:03:24.899Z,5.00
2023-01-31T20:06:29.656Z,5.27
2023-01-31T20:09:32.337Z,5.97
2023-01-31T20:12:35.056Z,4.97
2023-01-31T20:15:39.188Z,6.07
2023-01-31T20:18:42.467Z,5.63
2023-01-31T20:21:45.559Z,4.90
2023-01-31T20:24:48.273Z,4.60
2023-01-31T20:27:51.003Z,4.60
2023-01-31T20:30:55.646Z,5.90
2023-01-31T20:33:58.315Z,5.17
2023-01-31T20:37:01.024Z,4.77
2023-01-31T20:40:03.711Z,5.43
2023-01-31T20:43:07.475Z,4.77
2023-01-31T20:46:14.377Z,5.10
2023-01-31T20:49:17.145Z,5.67
2023-01-31T20:52:21.359Z,5.83
2023-01-31T20:55:24.879Z,5.37
2023-01-31T20:58:28.770Z,5.67
2023-01-31T21:01:32.917Z,5.27
2023-01-31T21:04:35.645Z,6.23
2023-01-31T21:07:38.335Z,4.80
2023-01-31T21:10:41.667Z,5.63
2023-01-31T21:13:44.378Z,5.83
2023-01-31T21:16:49.105Z,5.40
2023-01-31T21:19:51.765Z,5.40
2023-01-31T21:22:54.455Z,4.30
2023-01-31T21:26:01.664Z,4.73
2023-01-31T21:29:04.436Z,4.93
2023-01-31T21:32:08.511Z,5.50
2023-01-31T21:35:11.230Z,5.90
2023-01-31T21:38:13.925Z,5.67
2023-01-31T21:41:34.047Z,5.10
2023-01-31T21:44:36.778Z,5.30
2023-01-31T21:47:54.700Z,5.37
2023-01-31T21:50:58.721Z,6.37
2023-01-31T21:54:01.427Z,4.77
2023-01-31T21:57:04.303Z,4.83
2023-01-31T22:00:08.624Z,4.70
2023-01-31T22:03:12.647Z,4.20
2023-01-31T22:06:17.358Z,4.63
2023-01-31T22:09:20.245Z,5.67
2023-01-31T22:12:22.882Z,5.47
2023-01-31T22:15:25.593Z,4.30
2023-01-31T22:18:30.311Z,4.73
2023-01-31T22:21:34.653Z,4.73
2023-01-31T22:24:37.347Z,4.30
2023-01-31T22:27:40.042Z,5.93
2023-01-31T22:30:42.733Z,5.03
2023-01-31T22:33:46.846Z,4.50
2023-01-31T22:36:49.520Z,4.87
2023-01-31T22:39:52.197Z,6.00
2023-01-31T22:42:54.857Z,4.00
2023-01-31T22:46:00.347Z,4.87
2023-01-31T22:49:04.459Z,4.20
2023-01-31T22:52:07.132Z,4.37
2023-01-31T22:55:10.592Z,4.37
2023-01-31T22:58:15.071Z,4.57
2023-01-31T23:01:19.569Z,4.03
2023-01-31T23:04:23.650Z,5.40
2023-01-31T23:07:26.545Z,4.83
2023-01-31T23:10:29.250Z,4.53
2023-01-31T23:13:32.138Z,3.63
2023-01-31T23:16:51.630Z,4.87
2023-01-31T23:19:55.711Z,4.83
2023-01-31T23:22:59.450Z,4.30
2023-01-31T23:26:02.327Z,4.93
2023-01-31T23:29:05.019Z,5.40
2023-01-31T23:32:07.774Z,4.20
2023-01-31T23:35:12.324Z,4.53
2023-01-31T23:38:15.188Z,4.50
2023-01-31T23:41:17.949Z,4.63
2023-01-31T23:44:20.608Z,5.00
2023-01-31T23:47:23.328Z,4.77
2023-01-31T23:50:27.524Z,4.60
2023-01-31T23:53:30.181Z,4.90
2023-01-31T23:56:32.930Z,3.50
2023-01-31T23:59:35.765Z,3.50
